createdAt,value
2023-03-21T00:01:05.391Z,34.60
2023-03-21T00:03:38.183Z,36.20
2023-03-21T00:06:13.133Z,34.30
2023-03-21T00:08:46.096Z,37.40
2023-03-21T00:11:23.185Z,35.90
2023-03-21T00:13:58.789Z,37.80
2023-03-21T00:16:36.104Z,33.30
2023-03-21T00:19:14.744Z,31.60
2023-03-21T00:22:06.024Z,37.10
2023-03-21T00:24:40.289Z,35.20
2023-03-21T00:27:39.773Z,36.00
2023-03-21T00:30:08.103Z,41.30
2023-03-21T00:32:54.981Z,33.00
2023-03-21T00:35:57.899Z,35.20
2023-03-21T00:38:24.556Z,37.10
2023-03-21T00:41:01.931Z,38.50
2023-03-21T00:43:38.074Z,36.10
2023-03-21T00:46:11.032Z,34.00
2023-03-21T00:48:46.226Z,39.30
2023-03-21T00:51:26.787Z,34.20
2023-03-21T00:54:00.010Z,38.60
2023-03-21T00:56:36.172Z,42.20
2023-03-21T00:59:08.784Z,39.60
2023-03-21T01:01:42.326Z,41.80
2023-03-21T01:04:16.985Z,40.30
2023-03-21T01:06:49.887Z,40.50
2023-03-21T01:09:24.993Z,37.00
2023-03-21T01:11:57.662Z,36.00
2023-03-21T01:14:30.643Z,37.30
2023-03-21T01:17:03.452Z,36.80
2023-03-21T01:19:50.764Z,40.80
2023-03-21T01:22:24.668Z,40.40
2023-03-21T01:25:08.864Z,38.30
2023-03-21T01:27:53.396Z,37.10
2023-03-21T01:30:28.693Z,33.30
2023-03-21T01:33:04.129Z,35.30
2023-03-21T01:35:50.520Z,37.00
2023-03-21T01:41:01.109Z,38.50
2023-03-21T01:43:40.953Z,37.80
2023-03-21T01:46:51.833Z,34.50
2023-03-21T01:49:47.137Z,34.30
2023-03-21T01:52:40.054Z,38.70
2023-03-21T01:55:17.180Z,36.30
2023-03-21T01:58:05.811Z,37.90
2023-03-21T02:00:48.935Z,36.10
2023-03-21T02:03:39.257Z,34.30
2023-03-21T02:06:48.133Z,33.80
2023-03-21T02:09:48.803Z,34.20
2023-03-21T02:12:27.065Z,36.70
2023-03-21T02:15:01.842Z,35.90
2023-03-21T02:17:44.435Z,39.00
2023-03-21T02:20:54.894Z,39.70
2023-03-21T02:24:08.792Z,39.50
2023-03-21T02:27:04.400Z,37.90
2023-03-21T02:30:02.264Z,36.20
2023-03-21T02:32:41.913Z,39.70
2023-03-21T02:35:23.643Z,36.80
2023-03-21T02:38:00.507Z,37.50
2023-03-21T02:40:39.381Z,39.40
2023-03-21T02:43:23.118Z,38.80
2023-03-21T02:45:59.406Z,38.70
2023-03-21T02:48:44.764Z,36.70
2023-03-21T02:51:23.615Z,38.30
2023-03-21T02:54:24.948Z,38.60
2023-03-21T02:56:53.850Z,34.30
2023-03-21T02:59:26.856Z,37.80
2023-03-21T03:02:00.368Z,40.50
2023-03-21T03:04:33.978Z,40.10
2023-03-21T03:07:24.388Z,38.80
2023-03-21T03:10:09.347Z,37.10
2023-03-21T03:12:46.618Z,34.90
2023-03-21T03:15:28.562Z,35.70
2023-03-21T03:18:03.853Z,36.80
2023-03-21T03:20:44.788Z,33.10
2023-03-21T03:23:25.539Z,35.10
2023-03-21T03:26:00.191Z,36.20
2023-03-21T03:28:34.787Z,32.60
2023-03-21T03:31:12.439Z,32.40
2023-03-21T03:33:55.820Z,29.80
2023-03-21T03:36:32.413Z,29.90
2023-03-21T03:39:11.940Z,30.80
2023-03-21T03:42:18.316Z,31.00
2023-03-21T03:44:46.407Z,27.00
2023-03-21T03:47:32.829Z,29.80
2023-03-21T03:50:10.705Z,26.90
2023-03-21T03:52:55.600Z,29.30
2023-03-21T03:55:34.853Z,31.70
2023-03-21T04:00:56.889Z,26.60
2023-03-21T04:03:47.859Z,31.60
2023-03-21T04:06:22.605Z,32.70
2023-03-21T04:08:56.700Z,29.30
2023-03-21T04:11:29.559Z,34.70
2023-03-21T04:14:02.802Z,28.60
2023-03-21T04:16:38.576Z,28.90
2023-03-21T04:19:12.470Z,28.70
2023-03-21T04:21:45.281Z,32.00
2023-03-21T04:24:21.436Z,33.00
2023-03-21T04:26:55.466Z,30.00
2023-03-21T04:29:43.911Z,29.90
2023-03-21T04:32:44.360Z,26.90
2023-03-21T04:35:20.386Z,26.50
2023-03-21T04:37:53.437Z,27.30
2023-03-21T04:40:26.596Z,29.80
2023-03-21T04:43:01.781Z,27.50
2023-03-21T04:45:34.707Z,27.60
2023-03-21T04:48:09.448Z,27.40
2023-03-21T04:50:46.560Z,28.40
2023-03-21T04:53:19.660Z,28.20
2023-03-21T04:55:55.564Z,32.80
2023-03-21T04:58:31.861Z,30.50
2023-03-21T05:01:06.261Z,30.00
2023-03-21T05:03:40.786Z,32.60
2023-03-21T05:06:14.464Z,35.70
2023-03-21T05:08:48.708Z,34.40
2023-03-21T05:11:21.392Z,36.30
2023-03-21T05:13:54.369Z,35.00
2023-03-21T05:16:31.022Z,35.90
2023-03-21T05:19:05.519Z,36.30
2023-03-21T05:21:43.787Z,39.50
2023-03-21T05:24:22.581Z,34.60
2023-03-21T05:26:56.532Z,37.10
2023-03-21T05:29:34.307Z,37.90
2023-03-21T05:32:09.036Z,40.20
2023-03-21T05:34:42.051Z,37.80
2023-03-21T05:37:18.257Z,39.40
2023-03-21T05:39:53.594Z,37.30
2023-03-21T05:42:34.394Z,39.00
2023-03-21T05:45:15.030Z,33.90
2023-03-21T05:47:51.839Z,39.70
2023-03-21T05:50:25.244Z,36.00
2023-03-21T05:53:12.451Z,35.80
2023-03-21T05:55:45.866Z,38.20
2023-03-21T05:58:25.814Z,38.10
2023-03-21T06:00:59.733Z,38.10
2023-03-21T06:03:37.641Z,40.10
2023-03-21T06:06:18.927Z,39.70
2023-03-21T06:09:00.717Z,35.40
2023-03-21T06:11:34.800Z,37.90
2023-03-21T06:14:23.124Z,40.90
2023-03-21T06:17:11.216Z,41.90
2023-03-21T06:19:49.947Z,44.90
2023-03-21T06:22:35.502Z,47.20
2023-03-21T06:25:11.341Z,45.50
2023-03-21T06:27:44.078Z,44.40
2023-03-21T06:30:20.202Z,47.70
2023-03-21T06:33:25.258Z,49.90
2023-03-21T06:35:58.768Z,54.10
2023-03-21T06:38:32.125Z,50.00
2023-03-21T06:41:05.320Z,51.90
2023-03-21T06:43:43.067Z,46.40
2023-03-21T06:46:15.920Z,40.80
2023-03-21T06:48:49.247Z,38.70
2023-03-21T06:51:23.920Z,44.20
2023-03-21T06:54:22.838Z,39.40
2023-03-21T06:57:09.132Z,41.50
2023-03-21T06:59:43.255Z,35.20
2023-03-21T07:02:27.725Z,38.00
2023-03-21T07:05:07.900Z,37.90
2023-03-21T07:07:40.641Z,40.80
2023-03-21T07:10:15.975Z,37.80
2023-03-21T07:13:04.450Z,37.00
2023-03-21T07:16:03.443Z,34.90
2023-03-21T07:18:36.212Z,38.30
2023-03-21T07:21:10.513Z,38.80
2023-03-21T07:23:43.703Z,36.70
2023-03-21T07:26:18.734Z,33.70
2023-03-21T07:28:51.993Z,34.90
2023-03-21T07:31:27.124Z,36.70
2023-03-21T07:33:59.797Z,35.30
2023-03-21T07:36:32.861Z,35.90
2023-03-21T07:39:05.759Z,36.70
2023-03-21T07:41:38.538Z,34.90
2023-03-21T07:44:28.052Z,33.50
2023-03-21T07:47:08.045Z,34.40
2023-03-21T07:49:41.204Z,33.60
2023-03-21T07:52:17.119Z,31.10
2023-03-21T07:54:51.682Z,32.10
2023-03-21T07:57:24.393Z,31.20
2023-03-21T07:59:57.045Z,34.40
2023-03-21T08:02:29.904Z,29.30
2023-03-21T08:05:03.398Z,31.20
2023-03-21T08:07:36.430Z,32.00
2023-03-21T08:10:12.124Z,26.90
2023-03-21T08:12:47.964Z,30.80
2023-03-21T08:15:21.234Z,32.10
2023-03-21T08:17:54.072Z,31.60
2023-03-21T08:20:28.473Z,32.00
2023-03-21T08:23:01.238Z,29.70
2023-03-21T08:25:34.057Z,29.10
2023-03-21T08:28:06.903Z,28.40
2023-03-21T08:30:40.227Z,29.30
2023-03-21T08:33:13.635Z,30.70
2023-03-21T08:35:51.143Z,23.60
2023-03-21T08:38:24.833Z,28.50
2023-03-21T08:41:00.100Z,27.70
2023-03-21T08:43:34.795Z,29.60
2023-03-21T08:46:08.174Z,26.70
2023-03-21T08:48:41.422Z,25.40
2023-03-21T08:51:14.117Z,23.40
2023-03-21T08:53:46.875Z,23.40
2023-03-21T08:56:19.690Z,22.20
2023-03-21T08:58:52.582Z,23.10
2023-03-21T09:01:26.468Z,24.50
2023-03-21T09:03:59.350Z,23.30
2023-03-21T09:06:41.212Z,24.50
2023-03-21T09:09:13.893Z,22.80
2023-03-21T09:11:46.597Z,22.90
2023-03-21T09:14:19.306Z,21.90
2023-03-21T09:16:53.389Z,22.60
2023-03-21T09:19:28.117Z,23.90
2023-03-21T09:22:01.607Z,20.30
2023-03-21T09:24:34.707Z,20.60
2023-03-21T09:27:09.464Z,19.70
2023-03-21T09:29:43.801Z,19.30
2023-03-21T09:32:18.622Z,18.60
2023-03-21T09:34:53.413Z,17.20
2023-03-21T09:37:26.818Z,18.50
2023-03-21T09:39:59.530Z,19.90
2023-03-21T09:42:37.834Z,19.70
2023-03-21T09:45:15.879Z,19.90
2023-03-21T09:47:53.744Z,19.80
2023-03-21T09:50:29.025Z,19.10
2023-03-21T09:53:04.141Z,17.00
2023-03-21T09:55:40.382Z,17.50
2023-03-21T09:58:26.780Z,16.60
2023-03-21T10:01:01.403Z,17.90
2023-03-21T10:03:44.132Z,14.80
2023-03-21T10:06:16.896Z,17.00
2023-03-21T10:08:51.179Z,16.50
2023-03-21T10:11:36.952Z,15.50
2023-03-21T10:14:13.819Z,14.30
2023-03-21T10:16:47.224Z,14.00
2023-03-21T10:19:20.991Z,15.70
2023-03-21T10:22:03.671Z,16.70
2023-03-21T10:24:37.041Z,15.30
2023-03-21T10:27:13.822Z,14.60
2023-03-21T10:29:46.949Z,14.00
2023-03-21T10:32:20.611Z,14.30
2023-03-21T10:37:30.280Z,15.60
2023-03-21T10:40:06.739Z,16.20
2023-03-21T10:42:40.738Z,16.80
2023-03-21T10:45:17.731Z,15.50
2023-03-21T10:47:51.995Z,16.20
2023-03-21T10:50:28.401Z,13.90
2023-03-21T10:53:02.334Z,15.00
2023-03-21T10:55:36.731Z,12.50
2023-03-21T10:58:12.417Z,14.80
2023-03-21T11:00:45.503Z,13.20
2023-03-21T11:03:24.933Z,14.20
2023-03-21T11:05:58.943Z,16.10
2023-03-21T11:08:32.556Z,16.50
2023-03-21T11:11:09.912Z,15.40
2023-03-21T11:13:46.165Z,13.90
2023-03-21T11:16:27.573Z,14.40
2023-03-21T11:19:04.377Z,16.10
2023-03-21T11:21:40.233Z,12.20
2023-03-21T11:24:17.291Z,15.40
2023-03-21T11:26:51.605Z,15.50
2023-03-21T11:29:30.735Z,13.80
2023-03-21T11:32:12.857Z,14.80
2023-03-21T11:34:49.046Z,14.70
2023-03-21T11:37:30.095Z,13.70
2023-03-21T11:40:19.305Z,14.90
2023-03-21T11:42:53.456Z,13.90
2023-03-21T11:45:27.023Z,14.70
2023-03-21T11:48:01.708Z,14.80
2023-03-21T11:50:36.662Z,12.30
2023-03-21T11:53:27.243Z,14.60
2023-03-21T11:56:09.516Z,13.80
2023-03-21T11:58:51.560Z,14.90
2023-03-21T12:01:28.186Z,16.20
2023-03-21T12:04:06.184Z,15.40
2023-03-21T12:06:41.083Z,13.90
2023-03-21T12:09:21.267Z,14.80
2023-03-21T12:12:01.395Z,14.40
2023-03-21T12:14:38.858Z,13.50
2023-03-21T12:17:17.400Z,12.00
2023-03-21T12:20:02.410Z,13.20
2023-03-21T12:22:37.847Z,13.40
2023-03-21T12:25:12.474Z,12.10
2023-03-21T12:27:50.795Z,13.40
2023-03-21T12:30:35.939Z,12.70
2023-03-21T12:33:19.772Z,12.40
2023-03-21T12:36:00.746Z,12.90
2023-03-21T12:38:38.073Z,12.80
2023-03-21T12:41:20.930Z,13.00
2023-03-21T12:43:55.556Z,12.10
2023-03-21T12:46:30.716Z,12.30
2023-03-21T12:49:04.827Z,11.60
2023-03-21T12:51:38.682Z,12.10
2023-03-21T12:54:16.761Z,11.70
2023-03-21T12:56:53.627Z,11.30
2023-03-21T12:59:31.576Z,11.60
2023-03-21T13:02:11.628Z,11.30
2023-03-21T13:04:51.674Z,11.60
2023-03-21T13:07:25.792Z,11.20
2023-03-21T13:10:02.454Z,11.00
2023-03-21T13:12:46.552Z,11.10
2023-03-21T13:15:33.884Z,10.20
2023-03-21T13:18:12.200Z,11.00
2023-03-21T13:20:47.770Z,11.10
2023-03-21T13:23:20.560Z,11.70
2023-03-21T13:25:56.286Z,11.00
2023-03-21T13:28:31.433Z,11.90
2023-03-21T13:31:20.985Z,11.30
2023-03-21T13:33:54.787Z,11.40
2023-03-21T13:36:29.547Z,12.20
2023-03-21T13:39:05.854Z,12.20
2023-03-21T13:41:39.725Z,10.10
2023-03-21T13:44:24.384Z,9.60
2023-03-21T13:47:03.616Z,9.10
2023-03-21T13:49:37.141Z,9.90
2023-03-21T13:52:29.093Z,10.10
2023-03-21T13:55:01.986Z,9.70
2023-03-21T13:57:41.663Z,8.80
2023-03-21T14:00:24.420Z,9.80
2023-03-21T14:03:07.430Z,8.40
2023-03-21T14:05:40.400Z,9.00
2023-03-21T14:08:31.243Z,10.10
2023-03-21T14:11:12.208Z,8.40
2023-03-21T14:13:51.285Z,9.50
2023-03-21T14:16:25.807Z,9.60
2023-03-21T14:19:01.435Z,9.80
2023-03-21T14:21:39.316Z,9.80
2023-03-21T14:24:15.302Z,9.90
2023-03-21T14:26:49.520Z,8.40
2023-03-21T14:29:27.428Z,9.70
2023-03-21T14:32:00.969Z,10.70
2023-03-21T14:34:36.578Z,9.90
2023-03-21T14:37:13.697Z,10.50
2023-03-21T14:39:46.263Z,10.00
2023-03-21T14:42:21.298Z,9.70
2023-03-21T14:45:03.846Z,9.00
2023-03-21T14:47:38.230Z,9.70
2023-03-21T14:50:13.466Z,8.30
2023-03-21T14:52:48.070Z,8.30
2023-03-21T14:55:21.069Z,7.60
2023-03-21T14:57:54.545Z,8.10
2023-03-21T15:00:29.403Z,8.30
2023-03-21T15:03:03.316Z,9.00
2023-03-21T15:05:42.644Z,9.40
2023-03-21T15:08:18.639Z,8.50
2023-03-21T15:11:06.978Z,9.20
2023-03-21T15:13:45.598Z,9.00
2023-03-21T15:16:19.252Z,8.70
2023-03-21T15:18:52.023Z,9.10
2023-03-21T15:21:27.972Z,9.30
2023-03-21T15:24:02.061Z,9.30
2023-03-21T15:26:37.749Z,9.20
2023-03-21T15:29:10.943Z,9.40
2023-03-21T15:31:44.121Z,9.40
2023-03-21T15:34:22.762Z,11.30
2023-03-21T15:36:59.616Z,11.80
2023-03-21T15:39:40.359Z,14.60
2023-03-21T15:42:27.392Z,15.60
2023-03-21T15:45:12.003Z,13.70
2023-03-21T15:47:55.881Z,13.70
2023-03-21T15:50:36.589Z,15.30
2023-03-21T15:53:13.282Z,15.90
2023-03-21T15:55:50.201Z,16.80
2023-03-21T15:58:34.954Z,15.90
2023-03-21T16:01:09.943Z,15.60
2023-03-21T16:03:46.233Z,17.20
2023-03-21T16:06:22.011Z,18.70
2023-03-21T16:08:56.882Z,14.40
2023-03-21T16:11:30.107Z,14.50
2023-03-21T16:14:02.663Z,13.20
2023-03-21T16:16:35.950Z,13.30
2023-03-21T16:19:17.063Z,13.50
2023-03-21T16:21:50.245Z,12.50
2023-03-21T16:24:23.259Z,12.00
2023-03-21T16:26:58.470Z,13.20
2023-03-21T16:29:31.676Z,12.40
2023-03-21T16:32:06.811Z,11.80
2023-03-21T16:34:42.221Z,11.50
2023-03-21T16:37:21.278Z,12.70
2023-03-21T16:39:54.334Z,13.80
2023-03-21T16:42:27.131Z,13.90
2023-03-21T16:45:03.338Z,14.60
2023-03-21T16:47:37.133Z,13.50
2023-03-21T16:50:21.959Z,13.20
2023-03-21T16:52:57.779Z,13.60
2023-03-21T16:55:33.112Z,12.70
2023-03-21T16:58:10.371Z,13.50
2023-03-21T17:00:44.192Z,13.30
2023-03-21T17:03:19.524Z,13.20
2023-03-21T17:05:54.816Z,12.70
2023-03-21T17:08:29.718Z,13.50
2023-03-21T17:11:06.587Z,13.80
2023-03-21T17:13:39.236Z,13.80
2023-03-21T17:16:12.789Z,12.30
2023-03-21T17:18:50.120Z,12.50
2023-03-21T17:21:24.258Z,13.60
2023-03-21T17:23:56.922Z,13.90
2023-03-21T17:26:30.188Z,13.70
2023-03-21T17:29:03.066Z,12.00
2023-03-21T17:31:37.287Z,15.30
2023-03-21T17:34:11.306Z,17.40
2023-03-21T17:36:44.309Z,15.30
2023-03-21T17:39:18.401Z,16.90
2023-03-21T17:41:52.202Z,15.90
2023-03-21T17:44:25.937Z,15.70
2023-03-21T17:46:59.625Z,15.70
2023-03-21T17:49:33.150Z,17.20
2023-03-21T17:52:06.863Z,17.90
2023-03-21T17:54:39.609Z,16.60
2023-03-21T17:57:13.874Z,16.90
2023-03-21T17:59:46.928Z,17.50
2023-03-21T18:02:20.906Z,18.20
2023-03-21T18:04:54.392Z,18.80
2023-03-21T18:08:02.031Z,17.40
2023-03-21T18:10:22.093Z,18.60
2023-03-21T18:12:56.428Z,19.80
2023-03-21T18:15:31.267Z,20.10
2023-03-21T18:18:04.791Z,17.00
2023-03-21T18:20:54.454Z,17.80
2023-03-21T18:23:28.420Z,18.70
2023-03-21T18:26:01.732Z,19.10
2023-03-21T18:28:41.528Z,20.80
2023-03-21T18:31:19.940Z,20.80
2023-03-21T18:33:53.199Z,20.10
2023-03-21T18:36:28.731Z,20.20
2023-03-21T18:39:03.789Z,21.10
2023-03-21T18:41:40.589Z,19.00
2023-03-21T18:44:21.853Z,22.10
2023-03-21T18:46:58.016Z,24.70
2023-03-21T18:52:26.577Z,22.10
2023-03-21T18:54:59.365Z,22.00
2023-03-21T18:57:37.351Z,25.30
2023-03-21T19:00:14.006Z,27.70
2023-03-21T19:02:48.349Z,29.90
2023-03-21T19:05:26.225Z,28.70
2023-03-21T19:08:00.807Z,29.40
2023-03-21T19:10:34.145Z,26.20
2023-03-21T19:13:12.984Z,24.30
2023-03-21T19:15:49.509Z,23.70
2023-03-21T19:18:53.382Z,28.20
2023-03-21T19:21:17.151Z,29.80
2023-03-21T19:24:22.988Z,32.10
2023-03-21T19:26:45.824Z,30.80
2023-03-21T19:29:19.140Z,32.20
2023-03-21T19:31:52.898Z,31.90
2023-03-21T19:34:27.149Z,26.20
2023-03-21T19:37:02.654Z,26.90
2023-03-21T19:39:36.167Z,25.30
2023-03-21T19:42:16.985Z,29.40
2023-03-21T19:44:50.545Z,31.90
2023-03-21T19:47:23.194Z,27.70
2023-03-21T19:50:42.083Z,29.70
2023-03-21T19:52:49.605Z,27.60
2023-03-21T19:55:23.071Z,26.20
2023-03-21T19:57:56.544Z,25.60
2023-03-21T20:00:30.569Z,27.30
2023-03-21T20:03:07.394Z,26.70
2023-03-21T20:05:40.083Z,30.60
2023-03-21T20:08:13.755Z,28.70
2023-03-21T20:10:48.136Z,30.40
2023-03-21T20:13:21.736Z,31.20
2023-03-21T20:15:55.498Z,33.00
2023-03-21T20:18:38.293Z,31.80
2023-03-21T20:21:17.491Z,32.90
2023-03-21T20:23:51.131Z,34.60
2023-03-21T20:26:23.995Z,31.00
2023-03-21T20:29:25.170Z,33.00
2023-03-21T20:31:53.421Z,33.40
2023-03-21T20:34:26.496Z,32.80
2023-03-21T20:36:59.669Z,32.10
2023-03-21T20:39:32.672Z,35.10
2023-03-21T20:42:05.735Z,36.40
2023-03-21T20:44:56.307Z,35.00
2023-03-21T20:47:30.900Z,35.00
2023-03-21T20:50:04.976Z,36.50
2023-03-21T20:55:33.692Z,40.70
2023-03-21T20:58:27.173Z,40.60
2023-03-21T21:01:04.666Z,39.70
2023-03-21T21:03:41.492Z,39.20
2023-03-21T21:06:16.766Z,38.90
2023-03-21T21:08:56.945Z,39.50
2023-03-21T21:14:25.420Z,41.60
2023-03-21T21:17:21.021Z,38.80
2023-03-21T21:19:57.330Z,36.80
2023-03-21T21:22:32.728Z,37.20
2023-03-21T21:25:05.902Z,35.80
2023-03-21T21:27:39.626Z,38.30
2023-03-21T21:30:18.884Z,34.10
2023-03-21T21:32:52.830Z,33.80
2023-03-21T21:35:25.887Z,34.40
2023-03-21T21:37:58.928Z,32.30
2023-03-21T21:40:32.166Z,34.30
2023-03-21T21:43:05.336Z,36.70
2023-03-21T21:45:41.802Z,39.30
2023-03-21T21:48:14.700Z,40.80
2023-03-21T21:50:48.752Z,40.70
2023-03-21T21:53:21.358Z,37.60
2023-03-21T21:55:54.486Z,38.00
2023-03-21T21:58:27.603Z,39.10
2023-03-21T22:01:03.086Z,37.60
2023-03-21T22:03:41.321Z,38.40
2023-03-21T22:06:14.400Z,40.00
2023-03-21T22:08:51.924Z,47.10
2023-03-21T22:11:24.482Z,49.40
2023-03-21T22:13:57.456Z,50.40
2023-03-21T22:16:31.024Z,50.20
2023-03-21T22:19:03.887Z,38.70
2023-03-21T22:21:39.264Z,46.80
2023-03-21T22:24:12.851Z,47.60
2023-03-21T22:26:45.413Z,45.00
2023-03-21T22:29:22.044Z,38.80
2023-03-21T22:31:55.022Z,48.70
2023-03-21T22:34:28.829Z,44.30
2023-03-21T22:37:02.852Z,47.80
2023-03-21T22:39:36.143Z,39.40
2023-03-21T22:42:15.672Z,43.70
2023-03-21T22:44:48.186Z,37.50
2023-03-21T22:47:21.227Z,46.50
2023-03-21T22:49:55.114Z,53.30
2023-03-21T22:52:27.871Z,52.00
2023-03-21T22:55:02.300Z,50.50
2023-03-21T22:57:35.707Z,47.90
2023-03-21T23:00:13.785Z,42.20
2023-03-21T23:02:48.275Z,43.50
2023-03-21T23:05:21.250Z,48.60
2023-03-21T23:08:00.759Z,48.90
2023-03-21T23:10:33.477Z,47.20
2023-03-21T23:13:06.046Z,44.70
2023-03-21T23:15:45.139Z,33.90
2023-03-21T23:18:20.392Z,41.90
2023-03-21T23:20:53.920Z,43.00
2023-03-21T23:23:26.847Z,46.10
2023-03-21T23:25:59.550Z,37.20
2023-03-21T23:28:32.465Z,38.10
2023-03-21T23:31:11.630Z,37.00
2023-03-21T23:33:44.904Z,28.00
2023-03-21T23:36:20.361Z,31.10
2023-03-21T23:38:53.492Z,47.00
2023-03-21T23:41:28.092Z,32.60
2023-03-21T23:44:01.181Z,28.50
2023-03-21T23:46:39.292Z,28.50
2023-03-21T23:49:12.240Z,24.20
2023-03-21T23:51:45.058Z,27.70
2023-03-21T23:54:17.680Z,29.70
2023-03-21T23:56:50.273Z,31.30
2023-03-21T23:59:25.660Z,32.80
